sensor_id;sensor_type;location;lat;lon;timestamp;P1;durP1;ratioP1;P2;durP2;ratioP2
9880;SDS011;4979;51.014;6.678;2023-02-01T00:01:26;20.42;;;7.97;;
9880;SDS011;4979;51.014;6.678;2023-02-01T00:03:51;19.45;;;8.05;;
9880;SDS011;4979;51.014;6.678;2023-02-01T00:06:17;21.58;;;7.68;;
9880;SDS011;4979;51.014;6.678;2023-02-01T00:08:43;19.63;;;7.30;;
9880;SDS011;4979;51.014;6.678;2023-02-01T00:11:10;20.10;;;7.63;;
9880;SDS011;4979;51.014;6.678;2023-02-01T00:13:37;19.08;;;8.30;;
9880;SDS011;4979;51.014;6.678;2023-02-01T00:16:05;13.82;;;7.20;;
9880;SDS011;4979;51.014;6.678;2023-02-01T00:18:43;14.77;;;7.05;;
9880;SDS011;4979;51.014;6.678;2023-02-01T00:21:12;15.88;;;6.65;;
9880;SDS011;4979;51.014;6.678;2023-02-01T00:23:39;24.75;;;7.20;;
9880;SDS011;4979;51.014;6.678;2023-02-01T00:26:06;16.42;;;7.07;;
9880;SDS011;4979;51.014;6.678;2023-02-01T00:28:37;15.27;;;6.72;;
9880;SDS011;4979;51.014;6.678;2023-02-01T00:31:03;9.75;;;4.80;;
9880;SDS011;4979;51.014;6.678;2023-02-01T00:33:30;16.85;;;6.28;;
9880;SDS011;4979;51.014;6.678;2023-02-01T00:35:59;14.35;;;4.75;;
9880;SDS011;4979;51.014;6.678;2023-02-01T00:38:27;16.77;;;5.32;;
9880;SDS011;4979;51.014;6.678;2023-02-01T00:40:54;17.50;;;4.85;;
9880;SDS011;4979;51.014;6.678;2023-02-01T00:43:26;13.73;;;3.55;;
9880;SDS011;4979;51.014;6.678;2023-02-01T00:45:51;8.55;;;4.20;;
9880;SDS011;4979;51.014;6.678;2023-02-01T00:48:17;18.00;;;4.65;;
9880;SDS011;4979;51.014;6.678;2023-02-01T00:50:42;18.02;;;4.28;;
9880;SDS011;4979;51.014;6.678;2023-02-01T00:53:08;12.07;;;3.60;;
9880;SDS011;4979;51.014;6.678;2023-02-01T00:55:35;10.82;;;3.47;;
9880;SDS011;4979;51.014;6.678;2023-02-01T00:58:00;12.57;;;4.10;;
9880;SDS011;4979;51.014;6.678;2023-02-01T01:00:26;15.25;;;3.75;;
9880;SDS011;4979;51.014;6.678;2023-02-01T01:02:51;15.70;;;4.22;;
9880;SDS011;4979;51.014;6.678;2023-02-01T01:05:17;9.98;;;3.28;;
9880;SDS011;4979;51.014;6.678;2023-02-01T01:07:43;8.70;;;3.30;;
9880;SDS011;4979;51.014;6.678;2023-02-01T01:10:08;21.35;;;3.10;;
9880;SDS011;4979;51.014;6.678;2023-02-01T01:12:34;17.58;;;3.55;;
9880;SDS011;4979;51.014;6.678;2023-02-01T01:15:00;11.77;;;3.33;;
9880;SDS011;4979;51.014;6.678;2023-02-01T01:17:25;10.93;;;3.28;;
9880;SDS011;4979;51.014;6.678;2023-02-01T01:19:51;13.75;;;3.65;;
9880;SDS011;4979;51.014;6.678;2023-02-01T01:22:16;11.65;;;3.20;;
9880;SDS011;4979;51.014;6.678;2023-02-01T01:24:42;13.20;;;3.78;;
9880;SDS011;4979;51.014;6.678;2023-02-01T01:27:08;14.38;;;4.47;;
9880;SDS011;4979;51.014;6.678;2023-02-01T01:29:34;14.57;;;3.88;;
9880;SDS011;4979;51.014;6.678;2023-02-01T01:32:00;14.57;;;4.72;;
9880;SDS011;4979;51.014;6.678;2023-02-01T01:34:25;25.55;;;4.25;;
9880;SDS011;4979;51.014;6.678;2023-02-01T01:36:51;15.43;;;3.53;;
9880;SDS011;4979;51.014;6.678;2023-02-01T01:39:16;13.05;;;3.60;;
9880;SDS011;4979;51.014;6.678;2023-02-01T01:41:42;16.92;;;3.80;;
9880;SDS011;4979;51.014;6.678;2023-02-01T01:44:55;12.05;;;3.55;;
9880;SDS011;4979;51.014;6.678;2023-02-01T01:47:11;14.70;;;3.83;;
9880;SDS011;4979;51.014;6.678;2023-02-01T01:49:38;17.40;;;3.70;;
9880;SDS011;4979;51.014;6.678;2023-02-01T01:52:04;15.00;;;4.03;;
9880;SDS011;4979;51.014;6.678;2023-02-01T01:54:35;19.40;;;5.28;;
9880;SDS011;4979;51.014;6.678;2023-02-01T01:57:06;15.73;;;4.25;;
9880;SDS011;4979;51.014;6.678;2023-02-01T01:59:36;12.20;;;3.97;;
9880;SDS011;4979;51.014;6.678;2023-02-01T02:02:04;23.13;;;5.20;;
9880;SDS011;4979;51.014;6.678;2023-02-01T02:04:31;9.00;;;3.50;;
9880;SDS011;4979;51.014;6.678;2023-02-01T02:07:02;16.75;;;4.47;;
9880;SDS011;4979;51.014;6.678;2023-02-01T02:09:32;18.25;;;4.35;;
9880;SDS011;4979;51.014;6.678;2023-02-01T02:11:58;12.93;;;3.88;;
9880;SDS011;4979;51.014;6.678;2023-02-01T02:14:24;19.13;;;4.25;;
9880;SDS011;4979;51.014;6.678;2023-02-01T02:19:48;12.10;;;4.75;;
9880;SDS011;4979;51.014;6.678;2023-02-01T02:38:30;13.38;;;5.43;;
9880;SDS011;4979;51.014;6.678;2023-02-01T02:41:14;15.98;;;5.55;;
9880;SDS011;4979;51.014;6.678;2023-02-01T02:47:21;20.90;;;6.40;;
9880;SDS011;4979;51.014;6.678;2023-02-01T02:49:54;14.18;;;5.75;;
9880;SDS011;4979;51.014;6.678;2023-02-01T02:52:46;15.63;;;6.50;;
9880;SDS011;4979;51.014;6.678;2023-02-01T02:55:35;20.55;;;6.50;;
9880;SDS011;4979;51.014;6.678;2023-02-01T02:58:04;12.60;;;5.70;;
9880;SDS011;4979;51.014;6.678;2023-02-01T03:00:50;15.95;;;6.35;;
9880;SDS011;4979;51.014;6.678;2023-02-01T03:03:39;16.13;;;6.05;;
9880;SDS011;4979;51.014;6.678;2023-02-01T03:06:24;13.35;;;6.88;;
9880;SDS011;4979;51.014;6.678;2023-02-01T03:08:50;16.98;;;6.47;;
9880;SDS011;4979;51.014;6.678;2023-02-01T03:11:19;18.50;;;6.55;;
9880;SDS011;4979;51.014;6.678;2023-02-01T03:13:48;16.33;;;7.00;;
9880;SDS011;4979;51.014;6.678;2023-02-01T03:18:52;26.00;;;6.78;;
9880;SDS011;4979;51.014;6.678;2023-02-01T03:21:41;18.38;;;5.82;;
9880;SDS011;4979;51.014;6.678;2023-02-01T03:24:10;10.88;;;5.20;;
9880;SDS011;4979;51.014;6.678;2023-02-01T03:26:42;16.25;;;5.93;;
9880;SDS011;4979;51.014;6.678;2023-02-01T03:29:13;17.33;;;5.45;;
9880;SDS011;4979;51.014;6.678;2023-02-01T03:31:42;20.67;;;5.60;;
9880;SDS011;4979;51.014;6.678;2023-02-01T03:34:09;12.65;;;5.63;;
9880;SDS011;4979;51.014;6.678;2023-02-01T03:36:38;13.07;;;3.90;;
9880;SDS011;4979;51.014;6.678;2023-02-01T03:39:25;13.63;;;5.03;;
9880;SDS011;4979;51.014;6.678;2023-02-01T03:41:55;17.95;;;6.40;;
9880;SDS011;4979;51.014;6.678;2023-02-01T03:47:17;13.05;;;5.07;;
9880;SDS011;4979;51.014;6.678;2023-02-01T03:49:47;21.02;;;5.53;;
9880;SDS011;4979;51.014;6.678;2023-02-01T03:52:22;23.05;;;5.00;;
9880;SDS011;4979;51.014;6.678;2023-02-01T03:55:02;11.55;;;4.63;;
9880;SDS011;4979;51.014;6.678;2023-02-01T03:57:31;12.20;;;4.88;;
9880;SDS011;4979;51.014;6.678;2023-02-01T04:00:19;20.33;;;5.25;;
9880;SDS011;4979;51.014;6.678;2023-02-01T04:02:48;18.10;;;5.00;;
9880;SDS011;4979;51.014;6.678;2023-02-01T04:05:14;12.02;;;3.90;;
9880;SDS011;4979;51.014;6.678;2023-02-01T04:07:40;17.00;;;4.65;;
9880;SDS011;4979;51.014;6.678;2023-02-01T04:10:06;20.73;;;5.15;;
9880;SDS011;4979;51.014;6.678;2023-02-01T04:12:32;12.05;;;3.95;;
9880;SDS011;4979;51.014;6.678;2023-02-01T04:14:58;14.90;;;4.32;;
9880;SDS011;4979;51.014;6.678;2023-02-01T04:17:23;9.15;;;2.97;;
9880;SDS011;4979;51.014;6.678;2023-02-01T04:19:49;20.33;;;4.63;;
9880;SDS011;4979;51.014;6.678;2023-02-01T04:22:14;15.55;;;5.68;;
9880;SDS011;4979;51.014;6.678;2023-02-01T04:24:40;17.73;;;4.88;;
9880;SDS011;4979;51.014;6.678;2023-02-01T04:27:06;15.13;;;4.60;;
9880;SDS011;4979;51.014;6.678;2023-02-01T04:29:32;18.25;;;4.20;;
9880;SDS011;4979;51.014;6.678;2023-02-01T04:31:57;12.23;;;2.97;;
9880;SDS011;4979;51.014;6.678;2023-02-01T04:34:23;13.93;;;3.20;;
9880;SDS011;4979;51.014;6.678;2023-02-01T04:36:49;16.65;;;4.00;;
9880;SDS011;4979;51.014;6.678;2023-02-01T04:39:15;10.77;;;4.40;;
9880;SDS011;4979;51.014;6.678;2023-02-01T04:41:41;17.58;;;3.70;;
9880;SDS011;4979;51.014;6.678;2023-02-01T04:44:08;11.98;;;3.58;;
9880;SDS011;4979;51.014;6.678;2023-02-01T04:46:38;14.73;;;3.40;;
9880;SDS011;4979;51.014;6.678;2023-02-01T04:49:04;9.75;;;2.95;;
9880;SDS011;4979;51.014;6.678;2023-02-01T04:51:29;13.10;;;3.40;;
9880;SDS011;4979;51.014;6.678;2023-02-01T04:53:55;12.43;;;2.95;;
9880;SDS011;4979;51.014;6.678;2023-02-01T04:56:21;14.32;;;3.80;;
9880;SDS011;4979;51.014;6.678;2023-02-01T04:58:46;21.48;;;3.35;;
9880;SDS011;4979;51.014;6.678;2023-02-01T05:01:12;6.32;;;2.22;;
9880;SDS011;4979;51.014;6.678;2023-02-01T05:03:37;10.73;;;3.38;;
9880;SDS011;4979;51.014;6.678;2023-02-01T05:06:03;7.65;;;2.63;;
9880;SDS011;4979;51.014;6.678;2023-02-01T05:08:29;14.52;;;3.50;;
9880;SDS011;4979;51.014;6.678;2023-02-01T05:10:56;16.35;;;3.50;;
9880;SDS011;4979;51.014;6.678;2023-02-01T05:13:21;13.05;;;3.22;;
9880;SDS011;4979;51.014;6.678;2023-02-01T05:16:06;13.68;;;3.40;;
9880;SDS011;4979;51.014;6.678;2023-02-01T05:18:31;7.07;;;4.40;;
9880;SDS011;4979;51.014;6.678;2023-02-01T05:20:57;12.07;;;2.55;;
9880;SDS011;4979;51.014;6.678;2023-02-01T05:23:22;14.10;;;3.85;;
9880;SDS011;4979;51.014;6.678;2023-02-01T05:25:48;14.88;;;3.13;;
9880;SDS011;4979;51.014;6.678;2023-02-01T05:28:13;13.88;;;3.28;;
9880;SDS011;4979;51.014;6.678;2023-02-01T05:30:39;14.38;;;3.10;;
9880;SDS011;4979;51.014;6.678;2023-02-01T05:33:05;9.38;;;2.15;;
9880;SDS011;4979;51.014;6.678;2023-02-01T05:35:30;7.50;;;2.50;;
9880;SDS011;4979;51.014;6.678;2023-02-01T05:37:56;7.13;;;1.50;;
9880;SDS011;4979;51.014;6.678;2023-02-01T05:40:21;18.75;;;2.53;;
9880;SDS011;4979;51.014;6.678;2023-02-01T05:42:47;6.15;;;2.33;;
9880;SDS011;4979;51.014;6.678;2023-02-01T05:45:13;11.15;;;2.85;;
9880;SDS011;4979;51.014;6.678;2023-02-01T05:47:39;11.88;;;2.50;;
9880;SDS011;4979;51.014;6.678;2023-02-01T05:50:05;10.75;;;3.00;;
9880;SDS011;4979;51.014;6.678;2023-02-01T05:52:31;12.73;;;2.90;;
9880;SDS011;4979;51.014;6.678;2023-02-01T05:54:57;12.63;;;2.72;;
9880;SDS011;4979;51.014;6.678;2023-02-01T05:57:22;18.45;;;3.63;;
9880;SDS011;4979;51.014;6.678;2023-02-01T05:59:48;11.45;;;2.63;;
9880;SDS011;4979;51.014;6.678;2023-02-01T06:02:14;13.68;;;3.15;;
9880;SDS011;4979;51.014;6.678;2023-02-01T06:04:40;19.52;;;4.57;;
9880;SDS011;4979;51.014;6.678;2023-02-01T06:07:07;12.52;;;3.28;;
9880;SDS011;4979;51.014;6.678;2023-02-01T06:09:34;18.27;;;4.10;;
9880;SDS011;4979;51.014;6.678;2023-02-01T06:12:00;13.93;;;3.92;;
9880;SDS011;4979;51.014;6.678;2023-02-01T06:14:26;11.15;;;2.60;;
9880;SDS011;4979;51.014;6.678;2023-02-01T06:16:52;6.78;;;2.25;;
9880;SDS011;4979;51.014;6.678;2023-02-01T06:19:19;9.52;;;2.08;;
9880;SDS011;4979;51.014;6.678;2023-02-01T06:21:44;19.55;;;3.65;;
9880;SDS011;4979;51.014;6.678;2023-02-01T06:24:10;15.40;;;3.33;;
9880;SDS011;4979;51.014;6.678;2023-02-01T06:26:36;10.07;;;2.90;;
9880;SDS011;4979;51.014;6.678;2023-02-01T06:29:02;13.05;;;2.75;;
9880;SDS011;4979;51.014;6.678;2023-02-01T06:31:27;9.15;;;3.33;;
9880;SDS011;4979;51.014;6.678;2023-02-01T06:33:53;15.38;;;3.33;;
9880;SDS011;4979;51.014;6.678;2023-02-01T06:36:19;8.90;;;2.65;;
9880;SDS011;4979;51.014;6.678;2023-02-01T06:38:46;10.25;;;3.05;;
9880;SDS011;4979;51.014;6.678;2023-02-01T06:41:13;22.65;;;3.58;;
9880;SDS011;4979;51.014;6.678;2023-02-01T06:43:39;14.80;;;3.47;;
9880;SDS011;4979;51.014;6.678;2023-02-01T06:46:06;15.38;;;3.03;;
9880;SDS011;4979;51.014;6.678;2023-02-01T06:48:33;16.63;;;2.55;;
9880;SDS011;4979;51.014;6.678;2023-02-01T06:50:59;13.73;;;3.45;;
9880;SDS011;4979;51.014;6.678;2023-02-01T06:53:25;7.28;;;2.40;;
9880;SDS011;4979;51.014;6.678;2023-02-01T06:55:55;13.93;;;3.67;;
9880;SDS011;4979;51.014;6.678;2023-02-01T06:58:22;15.15;;;3.25;;
9880;SDS011;4979;51.014;6.678;2023-02-01T07:00:48;9.23;;;1.95;;
9880;SDS011;4979;51.014;6.678;2023-02-01T07:03:14;11.35;;;3.25;;
9880;SDS011;4979;51.014;6.678;2023-02-01T07:05:39;15.50;;;3.65;;
9880;SDS011;4979;51.014;6.678;2023-02-01T07:08:05;13.07;;;3.45;;
9880;SDS011;4979;51.014;6.678;2023-02-01T07:10:31;12.15;;;3.47;;
9880;SDS011;4979;51.014;6.678;2023-02-01T07:12:57;11.32;;;2.45;;
9880;SDS011;4979;51.014;6.678;2023-02-01T07:15:22;17.25;;;3.25;;
9880;SDS011;4979;51.014;6.678;2023-02-01T07:17:48;13.50;;;4.43;;
9880;SDS011;4979;51.014;6.678;2023-02-01T07:20:14;10.93;;;2.88;;
9880;SDS011;4979;51.014;6.678;2023-02-01T07:22:40;12.10;;;2.58;;
9880;SDS011;4979;51.014;6.678;2023-02-01T07:25:06;10.10;;;2.45;;
9880;SDS011;4979;51.014;6.678;2023-02-01T07:27:35;11.90;;;3.22;;
9880;SDS011;4979;51.014;6.678;2023-02-01T07:30:01;21.92;;;3.97;;
9880;SDS011;4979;51.014;6.678;2023-02-01T07:32:28;9.18;;;2.63;;
9880;SDS011;4979;51.014;6.678;2023-02-01T07:34:54;9.90;;;3.53;;
9880;SDS011;4979;51.014;6.678;2023-02-01T07:37:19;18.02;;;3.17;;
9880;SDS011;4979;51.014;6.678;2023-02-01T07:39:45;14.68;;;3.53;;
9880;SDS011;4979;51.014;6.678;2023-02-01T07:42:11;11.23;;;4.53;;
9880;SDS011;4979;51.014;6.678;2023-02-01T07:44:36;13.43;;;2.88;;
9880;SDS011;4979;51.014;6.678;2023-02-01T07:47:02;14.13;;;3.58;;
9880;SDS011;4979;51.014;6.678;2023-02-01T07:49:27;12.07;;;2.15;;
9880;SDS011;4979;51.014;6.678;2023-02-01T07:51:53;15.38;;;3.40;;
9880;SDS011;4979;51.014;6.678;2023-02-01T07:54:19;16.65;;;3.75;;
9880;SDS011;4979;51.014;6.678;2023-02-01T07:56:44;15.68;;;3.80;;
9880;SDS011;4979;51.014;6.678;2023-02-01T07:59:10;13.70;;;3.35;;
9880;SDS011;4979;51.014;6.678;2023-02-01T08:01:36;14.05;;;2.88;;
9880;SDS011;4979;51.014;6.678;2023-02-01T08:04:02;12.50;;;2.75;;
9880;SDS011;4979;51.014;6.678;2023-02-01T08:06:29;10.60;;;3.60;;
9880;SDS011;4979;51.014;6.678;2023-02-01T08:08:57;13.57;;;3.58;;
9880;SDS011;4979;51.014;6.678;2023-02-01T08:11:23;13.15;;;3.22;;
9880;SDS011;4979;51.014;6.678;2023-02-01T08:13:50;14.35;;;3.47;;
9880;SDS011;4979;51.014;6.678;2023-02-01T08:16:17;19.35;;;4.65;;
9880;SDS011;4979;51.014;6.678;2023-02-01T08:18:44;21.77;;;3.75;;
9880;SDS011;4979;51.014;6.678;2023-02-01T08:21:11;15.85;;;3.58;;
9880;SDS011;4979;51.014;6.678;2023-02-01T08:23:38;6.05;;;2.05;;
9880;SDS011;4979;51.014;6.678;2023-02-01T08:28:30;12.35;;;2.97;;
9880;SDS011;4979;51.014;6.678;2023-02-01T08:30:56;12.75;;;2.90;;
9880;SDS011;4979;51.014;6.678;2023-02-01T08:33:22;9.55;;;3.15;;
9880;SDS011;4979;51.014;6.678;2023-02-01T08:35:47;8.65;;;4.38;;
9880;SDS011;4979;51.014;6.678;2023-02-01T08:38:13;11.75;;;2.42;;
9880;SDS011;4979;51.014;6.678;2023-02-01T08:40:39;15.07;;;3.75;;
9880;SDS011;4979;51.014;6.678;2023-02-01T08:43:06;10.00;;;3.53;;
9880;SDS011;4979;51.014;6.678;2023-02-01T08:45:32;13.90;;;2.90;;
9880;SDS011;4979;51.014;6.678;2023-02-01T08:47:58;14.63;;;3.20;;
9880;SDS011;4979;51.014;6.678;2023-02-01T08:50:24;10.48;;;3.05;;
9880;SDS011;4979;51.014;6.678;2023-02-01T08:52:51;6.45;;;2.15;;
9880;SDS011;4979;51.014;6.678;2023-02-01T08:55:18;18.27;;;3.33;;
9880;SDS011;4979;51.014;6.678;2023-02-01T08:57:44;13.77;;;2.95;;
9880;SDS011;4979;51.014;6.678;2023-02-01T09:00:14;14.95;;;3.63;;
9880;SDS011;4979;51.014;6.678;2023-02-01T09:02:41;15.85;;;2.92;;
9880;SDS011;4979;51.014;6.678;2023-02-01T09:05:18;20.50;;;4.13;;
9880;SDS011;4979;51.014;6.678;2023-02-01T09:07:47;21.13;;;4.30;;
9880;SDS011;4979;51.014;6.678;2023-02-01T09:10:12;8.68;;;2.58;;
9880;SDS011;4979;51.014;6.678;2023-02-01T09:12:38;12.05;;;2.80;;
9880;SDS011;4979;51.014;6.678;2023-02-01T09:15:03;10.82;;;2.88;;
9880;SDS011;4979;51.014;6.678;2023-02-01T09:17:31;11.40;;;3.28;;
9880;SDS011;4979;51.014;6.678;2023-02-01T09:19:57;13.15;;;3.83;;
9880;SDS011;4979;51.014;6.678;2023-02-01T09:22:23;17.38;;;3.42;;
9880;SDS011;4979;51.014;6.678;2023-02-01T09:24:49;21.00;;;4.05;;
9880;SDS011;4979;51.014;6.678;2023-02-01T09:27:14;14.75;;;3.67;;
9880;SDS011;4979;51.014;6.678;2023-02-01T09:29:40;9.18;;;2.22;;
9880;SDS011;4979;51.014;6.678;2023-02-01T09:32:06;23.13;;;3.00;;
9880;SDS011;4979;51.014;6.678;2023-02-01T09:34:32;8.50;;;2.22;;
9880;SDS011;4979;51.014;6.678;2023-02-01T09:36:58;13.23;;;3.05;;
9880;SDS011;4979;51.014;6.678;2023-02-01T09:39:24;11.65;;;2.88;;
9880;SDS011;4979;51.014;6.678;2023-02-01T09:46:46;11.43;;;2.38;;
9880;SDS011;4979;51.014;6.678;2023-02-01T09:49:14;18.48;;;3.83;;
9880;SDS011;4979;51.014;6.678;2023-02-01T09:51:45;13.43;;;2.83;;
9880;SDS011;4979;51.014;6.678;2023-02-01T09:54:15;17.67;;;3.08;;
9880;SDS011;4979;51.014;6.678;2023-02-01T09:56:42;12.32;;;3.13;;
9880;SDS011;4979;51.014;6.678;2023-02-01T10:02:25;18.20;;;4.15;;
9880;SDS011;4979;51.014;6.678;2023-02-01T10:04:57;14.18;;;3.60;;
9880;SDS011;4979;51.014;6.678;2023-02-01T10:15:24;12.02;;;2.92;;
9880;SDS011;4979;51.014;6.678;2023-02-01T10:20:57;13.68;;;3.55;;
9880;SDS011;4979;51.014;6.678;2023-02-01T10:26:20;15.45;;;3.40;;
9880;SDS011;4979;51.014;6.678;2023-02-01T10:28:51;15.07;;;4.18;;
9880;SDS011;4979;51.014;6.678;2023-02-01T10:31:21;10.70;;;3.22;;
9880;SDS011;4979;51.014;6.678;2023-02-01T10:33:50;14.40;;;3.13;;
9880;SDS011;4979;51.014;6.678;2023-02-01T10:36:27;6.90;;;2.50;;
9880;SDS011;4979;51.014;6.678;2023-02-01T10:38:56;6.57;;;2.40;;
9880;SDS011;4979;51.014;6.678;2023-02-01T10:41:33;8.55;;;3.47;;
9880;SDS011;4979;51.014;6.678;2023-02-01T10:44:02;11.45;;;3.05;;
9880;SDS011;4979;51.014;6.678;2023-02-01T10:46:31;11.77;;;3.10;;
9880;SDS011;4979;51.014;6.678;2023-02-01T10:48:58;12.20;;;2.50;;
9880;SDS011;4979;51.014;6.678;2023-02-01T10:51:28;12.52;;;3.22;;
9880;SDS011;4979;51.014;6.678;2023-02-01T10:54:22;15.00;;;3.25;;
9880;SDS011;4979;51.014;6.678;2023-02-01T10:56:57;13.23;;;2.92;;
9880;SDS011;4979;51.014;6.678;2023-02-01T10:59:27;20.30;;;3.70;;
9880;SDS011;4979;51.014;6.678;2023-02-01T11:02:01;15.63;;;4.22;;
9880;SDS011;4979;51.014;6.678;2023-02-01T11:04:38;8.82;;;2.95;;
9880;SDS011;4979;51.014;6.678;2023-02-01T11:07:05;11.77;;;3.63;;
9880;SDS011;4979;51.014;6.678;2023-02-01T11:09:40;16.17;;;3.80;;
9880;SDS011;4979;51.014;6.678;2023-02-01T11:12:20;9.93;;;2.75;;
9880;SDS011;4979;51.014;6.678;2023-02-01T11:14:54;14.35;;;3.53;;
9880;SDS011;4979;51.014;6.678;2023-02-01T11:17:26;14.65;;;2.90;;
9880;SDS011;4979;51.014;6.678;2023-02-01T11:19:58;11.98;;;2.65;;
9880;SDS011;4979;51.014;6.678;2023-02-01T11:22:26;13.30;;;3.42;;
9880;SDS011;4979;51.014;6.678;2023-02-01T11:24:53;16.80;;;3.58;;
9880;SDS011;4979;51.014;6.678;2023-02-01T11:27:20;12.52;;;3.67;;
9880;SDS011;4979;51.014;6.678;2023-02-01T11:29:48;12.57;;;3.75;;
9880;SDS011;4979;51.014;6.678;2023-02-01T11:32:17;12.57;;;3.30;;
9880;SDS011;4979;51.014;6.678;2023-02-01T11:34:45;10.32;;;3.40;;
9880;SDS011;4979;51.014;6.678;2023-02-01T11:39:57;10.38;;;3.22;;
9880;SDS011;4979;51.014;6.678;2023-02-01T11:42:24;14.70;;;2.88;;
9880;SDS011;4979;51.014;6.678;2023-02-01T11:44:51;11.90;;;3.10;;
9880;SDS011;4979;51.014;6.678;2023-02-01T11:48:00;11.00;;;3.13;;
9880;SDS011;4979;51.014;6.678;2023-02-01T11:50:46;12.57;;;3.15;;
9880;SDS011;4979;51.014;6.678;2023-02-01T11:53:36;10.43;;;3.08;;
9880;SDS011;4979;51.014;6.678;2023-02-01T11:56:25;11.60;;;2.97;;
9880;SDS011;4979;51.014;6.678;2023-02-01T12:01:41;10.30;;;2.88;;
9880;SDS011;4979;51.014;6.678;2023-02-01T12:10:25;9.48;;;2.83;;
9880;SDS011;4979;51.014;6.678;2023-02-01T12:13:21;10.23;;;2.75;;
9880;SDS011;4979;51.014;6.678;2023-02-01T12:16:31;8.38;;;2.13;;
9880;SDS011;4979;51.014;6.678;2023-02-01T12:19:23;13.40;;;3.22;;
9880;SDS011;4979;51.014;6.678;2023-02-01T12:22:20;8.80;;;2.33;;
9880;SDS011;4979;51.014;6.678;2023-02-01T12:27:53;9.23;;;3.15;;
9880;SDS011;4979;51.014;6.678;2023-02-01T12:33:12;9.88;;;2.70;;
9880;SDS011;4979;51.014;6.678;2023-02-01T12:46:56;15.18;;;2.85;;
9880;SDS011;4979;51.014;6.678;2023-02-01T12:49:27;13.02;;;2.67;;
9880;SDS011;4979;51.014;6.678;2023-02-01T12:52:01;9.00;;;2.70;;
9880;SDS011;4979;51.014;6.678;2023-02-01T12:54:41;12.98;;;3.88;;
9880;SDS011;4979;51.014;6.678;2023-02-01T12:57:42;7.70;;;2.60;;
9880;SDS011;4979;51.014;6.678;2023-02-01T13:00:06;12.13;;;3.20;;
9880;SDS011;4979;51.014;6.678;2023-02-01T13:05:41;8.43;;;2.47;;
9880;SDS011;4979;51.014;6.678;2023-02-01T13:11:26;14.73;;;2.97;;
9880;SDS011;4979;51.014;6.678;2023-02-01T13:16:46;13.30;;;2.85;;
9880;SDS011;4979;51.014;6.678;2023-02-01T13:19:17;8.95;;;2.45;;
9880;SDS011;4979;51.014;6.678;2023-02-01T13:22:03;14.90;;;3.25;;
9880;SDS011;4979;51.014;6.678;2023-02-01T13:24:47;16.20;;;2.35;;
9880;SDS011;4979;51.014;6.678;2023-02-01T13:27:20;8.70;;;2.30;;
9880;SDS011;4979;51.014;6.678;2023-02-01T13:32:34;11.05;;;2.40;;
9880;SDS011;4979;51.014;6.678;2023-02-01T13:35:37;9.07;;;2.80;;
9880;SDS011;4979;51.014;6.678;2023-02-01T13:41:31;10.98;;;2.63;;
9880;SDS011;4979;51.014;6.678;2023-02-01T13:44:05;14.82;;;2.53;;
9880;SDS011;4979;51.014;6.678;2023-02-01T13:46:43;11.32;;;3.03;;
9880;SDS011;4979;51.014;6.678;2023-02-01T13:49:20;7.65;;;2.67;;
9880;SDS011;4979;51.014;6.678;2023-02-01T13:51:54;16.67;;;3.30;;
9880;SDS011;4979;51.014;6.678;2023-02-01T13:54:31;12.40;;;2.83;;
9880;SDS011;4979;51.014;6.678;2023-02-01T13:56:59;14.52;;;3.38;;
9880;SDS011;4979;51.014;6.678;2023-02-01T14:05:03;8.02;;;2.13;;
9880;SDS011;4979;51.014;6.678;2023-02-01T14:07:32;7.15;;;1.60;;
9880;SDS011;4979;51.014;6.678;2023-02-01T14:09:58;15.65;;;3.72;;
9880;SDS011;4979;51.014;6.678;2023-02-01T14:12:45;9.65;;;1.98;;
9880;SDS011;4979;51.014;6.678;2023-02-01T14:15:23;8.00;;;2.30;;
9880;SDS011;4979;51.014;6.678;2023-02-01T14:17:50;15.10;;;2.67;;
9880;SDS011;4979;51.014;6.678;2023-02-01T14:23:15;11.07;;;2.45;;
9880;SDS011;4979;51.014;6.678;2023-02-01T14:25:43;10.57;;;2.67;;
9880;SDS011;4979;51.014;6.678;2023-02-01T14:28:11;7.88;;;2.42;;
9880;SDS011;4979;51.014;6.678;2023-02-01T14:30:43;7.00;;;2.53;;
9880;SDS011;4979;51.014;6.678;2023-02-01T14:33:16;8.65;;;1.63;;
9880;SDS011;4979;51.014;6.678;2023-02-01T14:35:52;9.65;;;2.60;;
9880;SDS011;4979;51.014;6.678;2023-02-01T14:38:25;5.13;;;2.20;;
9880;SDS011;4979;51.014;6.678;2023-02-01T14:40:50;5.45;;;2.03;;
9880;SDS011;4979;51.014;6.678;2023-02-01T14:43:17;5.57;;;1.33;;
9880;SDS011;4979;51.014;6.678;2023-02-01T14:46:03;9.57;;;2.35;;
9880;SDS011;4979;51.014;6.678;2023-02-01T14:50:55;7.45;;;1.75;;
9880;SDS011;4979;51.014;6.678;2023-02-01T14:53:29;4.63;;;2.10;;
9880;SDS011;4979;51.014;6.678;2023-02-01T14:58:40;11.85;;;2.70;;
9880;SDS011;4979;51.014;6.678;2023-02-01T15:01:16;5.43;;;1.98;;
9880;SDS011;4979;51.014;6.678;2023-02-01T15:06:23;13.40;;;2.90;;
9880;SDS011;4979;51.014;6.678;2023-02-01T15:09:29;9.65;;;2.15;;
9880;SDS011;4979;51.014;6.678;2023-02-01T15:12:03;7.72;;;2.10;;
9880;SDS011;4979;51.014;6.678;2023-02-01T15:14:44;11.15;;;2.83;;
9880;SDS011;4979;51.014;6.678;2023-02-01T15:17:29;8.00;;;3.08;;
9880;SDS011;4979;51.014;6.678;2023-02-01T15:19:59;9.10;;;2.80;;
9880;SDS011;4979;51.014;6.678;2023-02-01T15:22:55;7.60;;;1.85;;
9880;SDS011;4979;51.014;6.678;2023-02-01T15:25:35;10.75;;;2.63;;
9880;SDS011;4979;51.014;6.678;2023-02-01T15:28:03;9.48;;;2.13;;
9880;SDS011;4979;51.014;6.678;2023-02-01T15:30:31;8.73;;;2.55;;
9880;SDS011;4979;51.014;6.678;2023-02-01T15:33:06;14.30;;;2.05;;
9880;SDS011;4979;51.014;6.678;2023-02-01T15:35:44;12.95;;;3.15;;
9880;SDS011;4979;51.014;6.678;2023-02-01T15:41:05;4.82;;;1.63;;
9880;SDS011;4979;51.014;6.678;2023-02-01T15:43:34;8.50;;;2.13;;
9880;SDS011;4979;51.014;6.678;2023-02-01T15:46:24;7.93;;;1.88;;
9880;SDS011;4979;51.014;6.678;2023-02-01T15:48:57;15.15;;;2.42;;
9880;SDS011;4979;51.014;6.678;2023-02-01T15:51:24;7.45;;;2.08;;
9880;SDS011;4979;51.014;6.678;2023-02-01T15:54:00;9.38;;;2.38;;
9880;SDS011;4979;51.014;6.678;2023-02-01T15:56:33;6.22;;;2.10;;
9880;SDS011;4979;51.014;6.678;2023-02-01T15:59:01;11.52;;;2.63;;
9880;SDS011;4979;51.014;6.678;2023-02-01T16:01:29;11.93;;;3.08;;
9880;SDS011;4979;51.014;6.678;2023-02-01T16:04:03;17.50;;;3.22;;
9880;SDS011;4979;51.014;6.678;2023-02-01T16:06:35;8.82;;;2.67;;
9880;SDS011;4979;51.014;6.678;2023-02-01T16:09:13;6.15;;;1.83;;
9880;SDS011;4979;51.014;6.678;2023-02-01T16:11:46;6.78;;;1.70;;
9880;SDS011;4979;51.014;6.678;2023-02-01T16:14:18;13.63;;;2.92;;
9880;SDS011;4979;51.014;6.678;2023-02-01T16:16:44;7.93;;;2.60;;
9880;SDS011;4979;51.014;6.678;2023-02-01T16:19:10;11.82;;;3.17;;
9880;SDS011;4979;51.014;6.678;2023-02-01T16:21:35;8.43;;;2.65;;
9880;SDS011;4979;51.014;6.678;2023-02-01T16:24:01;12.52;;;2.22;;
9880;SDS011;4979;51.014;6.678;2023-02-01T16:26:29;7.43;;;2.15;;
9880;SDS011;4979;51.014;6.678;2023-02-01T16:28:56;10.98;;;2.80;;
9880;SDS011;4979;51.014;6.678;2023-02-01T16:31:25;11.15;;;2.80;;
9880;SDS011;4979;51.014;6.678;2023-02-01T16:33:54;14.70;;;2.17;;
9880;SDS011;4979;51.014;6.678;2023-02-01T16:36:19;11.45;;;2.60;;
9880;SDS011;4979;51.014;6.678;2023-02-01T16:38:46;14.02;;;3.45;;
9880;SDS011;4979;51.014;6.678;2023-02-01T16:41:14;10.50;;;3.22;;
9880;SDS011;4979;51.014;6.678;2023-02-01T16:43:41;8.52;;;2.22;;
9880;SDS011;4979;51.014;6.678;2023-02-01T16:46:17;11.73;;;2.97;;
9880;SDS011;4979;51.014;6.678;2023-02-01T16:48:47;15.77;;;2.33;;
9880;SDS011;4979;51.014;6.678;2023-02-01T16:51:17;9.32;;;2.53;;
9880;SDS011;4979;51.014;6.678;2023-02-01T16:53:44;11.27;;;2.30;;
9880;SDS011;4979;51.014;6.678;2023-02-01T16:56:24;15.52;;;2.42;;
9880;SDS011;4979;51.014;6.678;2023-02-01T16:58:55;10.63;;;2.00;;
9880;SDS011;4979;51.014;6.678;2023-02-01T17:01:21;12.02;;;2.47;;
9880;SDS011;4979;51.014;6.678;2023-02-01T17:03:47;11.15;;;2.75;;
9880;SDS011;4979;51.014;6.678;2023-02-01T17:06:15;15.30;;;2.95;;
9880;SDS011;4979;51.014;6.678;2023-02-01T17:08:44;10.80;;;2.85;;
9880;SDS011;4979;51.014;6.678;2023-02-01T17:11:12;12.63;;;3.22;;
9880;SDS011;4979;51.014;6.678;2023-02-01T17:13:38;14.85;;;2.85;;
9880;SDS011;4979;51.014;6.678;2023-02-01T17:18:45;8.93;;;3.10;;
9880;SDS011;4979;51.014;6.678;2023-02-01T17:21:15;9.15;;;2.47;;